Time;durP1;ratioP1;P1;durP2;ratioP2;P2;SDS_P1;SDS_P2;PMS_P1;PMS_P2;Temp;Humidity;BMP_temperature;BMP_pressure;BME280_temperature;BME280_humidity;BME280_pressure;Samples;Min_cycle;Max_cycle;Signal;HPM_P1;HPM_P2
2022/09/10 00:00:53;;;;;;;3.08;1.33;;;17.70;99.90;;;;;;5053902;28;20222;-55
2022/09/10 00:03:21;;;;;;;3.15;1.38;;;17.70;99.90;;;;;;5053636;28;20206;-55
2022/09/10 00:05:48;;;;;;;1.92;1.10;;;17.60;99.90;;;;;;5053849;28;20230;-55
2022/09/10 00:08:15;;;;;;;2.58;1.10;;;17.50;99.90;;;;;;5053711;28;20214;-56
2022/09/10 00:10:44;;;;;;;1.88;1.10;;;17.50;99.90;;;;;;5053761;28;20211;-54
2022/09/10 00:13:11;;;;;;;5.30;1.10;;;17.50;99.90;;;;;;5053711;28;20633;-53
2022/09/10 00:15:39;;;;;;;4.50;1.10;;;17.50;99.90;;;;;;5054025;28;20300;-54
2022/09/10 00:18:07;;;;;;;1.65;0.90;;;17.40;99.90;;;;;;5053294;28;20233;-54
2022/09/10 00:20:36;;;;;;;2.92;0.95;;;17.40;99.90;;;;;;5053610;28;20252;-54
2022/09/10 00:23:02;;;;;;;2.78;0.88;;;17.40;99.90;;;;;;5053857;28;20202;-54
2022/09/10 00:25:31;;;;;;;1.60;1.13;;;17.20;99.90;;;;;;5053412;28;20245;-54
2022/09/10 00:27:58;;;;;;;2.73;0.93;;;17.10;99.90;;;;;;5053448;28;20202;-55
2022/09/10 00:30:25;;;;;;;4.13;1.65;;;17.10;99.90;;;;;;5053305;28;20212;-55
2022/09/10 00:32:52;;;;;;;4.22;1.88;;;17.00;99.90;;;;;;5053630;28;20300;-54
2022/09/10 00:35:19;;;;;;;2.15;1.30;;;17.00;99.90;;;;;;5053529;28;20225;-53
2022/09/10 00:37:47;;;;;;;2.90;1.20;;;16.90;99.90;;;;;;5053485;28;20248;-54
2022/09/10 00:40:14;;;;;;;3.75;1.33;;;16.70;99.90;;;;;;5052839;28;20248;-55
2022/09/10 00:42:42;;;;;;;1.20;1.05;;;16.60;99.90;;;;;;5052959;28;20263;-53
2022/09/10 00:45:17;;;;;;;3.30;1.00;;;16.60;99.90;;;;;;5052814;28;20256;-54
2022/09/10 00:47:45;;;;;;;3.10;0.83;;;16.70;99.90;;;;;;5053053;28;20262;-53
2022/09/10 00:50:19;;;;;;;4.15;1.00;;;16.80;99.90;;;;;;5052537;28;20650;-54
2022/09/10 00:52:49;;;;;;;2.92;1.25;;;16.80;99.90;;;;;;5052965;28;20209;-56
2022/09/10 00:55:17;;;;;;;2.67;0.90;;;16.90;99.90;;;;;;5052759;28;20229;-54
2022/09/10 00:57:46;;;;;;;1.20;0.70;;;17.00;99.90;;;;;;5052672;28;20214;-54
2022/09/10 01:00:15;;;;;;;3.17;1.00;;;17.00;99.90;;;;;;5052189;28;20292;-54
2022/09/10 01:02:43;;;;;;;1.93;0.90;;;17.10;99.90;;;;;;5052508;28;20600;-54
2022/09/10 01:05:10;;;;;;;0.82;0.60;;;17.10;99.90;;;;;;5052509;28;20248;-54
2022/09/10 01:07:38;;;;;;;2.80;0.90;;;17.10;99.90;;;;;;5052521;28;20213;-54
2022/09/10 01:10:10;;;;;;;1.20;0.52;;;17.20;99.90;;;;;;5051674;28;20215;-55
2022/09/10 01:12:54;;;;;;;1.98;0.70;;;17.10;99.90;;;;;;5052440;28;20560;-54
2022/09/10 01:15:30;;;;;;;40.50;32.97;;;17.10;99.90;;;;;;5052434;28;20669;-55
2022/09/10 01:18:06;;;;;;;3.15;1.50;;;17.10;99.90;;;;;;5052424;28;20233;-56
2022/09/10 01:20:54;;;;;;;1.63;0.80;;;17.10;99.90;;;;;;5052349;28;20225;-54
2022/09/10 01:24:00;;;;;;;3.97;1.20;;;17.20;99.90;;;;;;5052583;28;20345;-54
2022/09/10 01:26:53;;;;;;;2.10;0.85;;;17.20;99.90;;;;;;5052233;28;20209;-54
2022/09/10 01:29:29;;;;;;;3.10;0.75;;;17.20;99.90;;;;;;5052240;28;20209;-54
2022/09/10 01:32:02;;;;;;;5.97;1.13;;;17.10;99.90;;;;;;5052350;28;20202;-55
2022/09/10 01:34:33;;;;;;;2.60;0.93;;;16.90;99.90;;;;;;5052092;28;20229;-57
2022/09/10 01:37:06;;;;;;;2.22;0.80;;;16.90;99.90;;;;;;5052036;28;20627;-53
2022/09/10 01:39:34;;;;;;;1.85;0.77;;;17.00;99.90;;;;;;5052055;28;20216;-56
2022/09/10 01:42:01;;;;;;;2.75;1.08;;;16.90;99.90;;;;;;5051854;28;20704;-53
2022/09/10 01:44:47;;;;;;;1.67;0.80;;;16.90;99.90;;;;;;5051882;28;20287;-54
2022/09/10 01:47:26;;;;;;;3.42;0.70;;;16.90;99.90;;;;;;5051880;28;20288;-54
2022/09/10 01:50:07;;;;;;;2.50;0.53;;;17.00;99.90;;;;;;5051656;28;20618;-53
2022/09/10 01:52:42;;;;;;;1.93;0.70;;;16.90;99.90;;;;;;5051903;28;20251;-54
2022/09/10 01:55:26;;;;;;;4.93;1.10;;;17.00;99.90;;;;;;5052107;28;20224;-54
2022/09/10 01:57:59;;;;;;;4.43;1.27;;;17.00;99.90;;;;;;5051832;28;20206;-54
2022/09/10 02:00:27;;;;;;;1.53;0.80;;;17.00;99.90;;;;;;5051683;28;20206;-54
2022/09/10 02:03:01;;;;;;;2.80;0.93;;;16.80;99.90;;;;;;5051529;28;20213;-54
2022/09/10 02:05:30;;;;;;;1.77;0.73;;;16.80;99.90;;;;;;5052001;28;20244;-55
2022/09/10 02:08:00;;;;;;;1.58;0.63;;;16.70;99.90;;;;;;5051847;28;20206;-54
2022/09/10 02:10:28;;;;;;;1.83;0.70;;;16.80;99.90;;;;;;5051562;28;20323;-54
2022/09/10 02:12:55;;;;;;;4.80;1.10;;;16.80;99.90;;;;;;5051891;28;20263;-55
2022/09/10 02:15:23;;;;;;;1.77;0.77;;;16.80;99.90;;;;;;5051850;28;20328;-54
2022/09/10 02:17:52;;;;;;;1.70;0.70;;;16.80;99.90;;;;;;5051883;28;20252;-56
2022/09/10 02:20:20;;;;;;;2.28;0.82;;;16.80;99.90;;;;;;5051854;28;20242;-55
2022/09/10 02:22:51;;;;;;;1.65;0.82;;;16.80;99.90;;;;;;5056295;28;20229;-54
2022/09/10 02:25:18;;;;;;;2.10;0.85;;;16.80;99.90;;;;;;5056131;28;20290;-54
2022/09/10 02:27:45;;;;;;;1.43;0.80;;;16.90;99.90;;;;;;5055755;28;20243;-54
2022/09/10 02:30:12;;;;;;;1.83;1.00;;;16.90;99.90;;;;;;5055507;28;20640;-53
2022/09/10 02:32:39;;;;;;;1.93;0.80;;;16.90;99.90;;;;;;5055748;28;20646;-55
2022/09/10 02:35:08;;;;;;;2.13;0.80;;;16.90;99.90;;;;;;5055809;28;20225;-54
2022/09/10 02:37:35;;;;;;;2.17;0.75;;;16.90;99.90;;;;;;5055561;28;20358;-53
2022/09/10 02:40:02;;;;;;;1.92;0.82;;;16.90;99.90;;;;;;5055416;28;20331;-54
2022/09/10 02:42:29;;;;;;;1.77;0.80;;;17.00;99.90;;;;;;5055756;28;20283;-54
2022/09/10 02:44:56;;;;;;;2.83;0.90;;;16.90;99.90;;;;;;5055558;28;20303;-55
2022/09/10 02:47:22;;;;;;;2.67;1.00;;;16.90;99.90;;;;;;5055847;28;20390;-54
2022/09/10 02:49:49;;;;;;;3.97;1.20;;;16.90;99.90;;;;;;5055272;28;20601;-54
2022/09/10 02:52:17;;;;;;;1.23;0.88;;;16.90;99.90;;;;;;5055252;28;20206;-53
2022/09/10 02:54:44;;;;;;;3.47;1.00;;;16.90;99.90;;;;;;5055545;28;20315;-53
2022/09/10 02:57:11;;;;;;;3.77;0.93;;;16.90;99.90;;;;;;5055191;28;20205;-55
2022/09/10 02:59:38;;;;;;;2.20;0.80;;;16.80;99.90;;;;;;5055013;28;20213;-53
2022/09/10 03:02:04;;;;;;;3.67;0.90;;;16.70;99.90;;;;;;5055044;28;20318;-54
2022/09/10 03:04:31;;;;;;;1.95;0.60;;;16.60;99.90;;;;;;5055085;28;20279;-54
2022/09/10 03:06:58;;;;;;;2.95;0.82;;;16.60;99.90;;;;;;5055066;28;20221;-54
2022/09/10 03:09:27;;;;;;;1.27;0.83;;;16.60;99.90;;;;;;5054885;28;20216;-53
2022/09/10 03:11:54;;;;;;;1.05;0.68;;;16.50;99.90;;;;;;5055001;28;20209;-54
2022/09/10 03:14:23;;;;;;;2.50;0.80;;;16.50;99.90;;;;;;5054991;28;20228;-53
2022/09/10 03:16:50;;;;;;;2.70;0.80;;;16.60;99.90;;;;;;5054708;28;20680;-54
2022/09/10 03:19:17;;;;;;;2.83;0.85;;;16.60;99.90;;;;;;5054530;28;20206;-54
2022/09/10 03:21:46;;;;;;;2.40;0.80;;;16.60;99.90;;;;;;5054695;28;20308;-55
2022/09/10 03:24:13;;;;;;;3.77;1.47;;;16.60;99.90;;;;;;5054379;28;20713;-54
2022/09/10 03:26:42;;;;;;;2.70;1.00;;;16.60;99.90;;;;;;5054445;28;20206;-54
2022/09/10 03:29:08;;;;;;;1.88;0.85;;;16.70;99.90;;;;;;5054344;28;20230;-54
2022/09/10 03:31:35;;;;;;;3.28;0.80;;;16.70;99.90;;;;;;5054080;28;20198;-53
2022/09/10 03:34:02;;;;;;;4.65;1.27;;;16.70;99.90;;;;;;5054327;28;20680;-54
2022/09/10 03:36:30;;;;;;;0.50;0.50;;;16.70;99.90;;;;;;5054383;28;20666;-53
2022/09/10 03:38:57;;;;;;;2.43;0.70;;;16.60;99.90;;;;;;5054330;28;20228;-53
2022/09/10 03:41:24;;;;;;;1.97;0.80;;;16.60;99.90;;;;;;5054168;28;20674;-54
2022/09/10 03:43:53;;;;;;;4.15;2.10;;;16.70;99.90;;;;;;5054194;28;20253;-54
2022/09/10 03:46:20;;;;;;;5.30;1.10;;;16.70;99.90;;;;;;5054305;28;20209;-54
2022/09/10 03:48:47;;;;;;;3.63;0.97;;;16.70;99.90;;;;;;5054369;28;20210;-54
2022/09/10 03:51:14;;;;;;;1.40;1.05;;;16.60;99.90;;;;;;5054767;28;20201;-54
2022/09/10 03:53:42;;;;;;;3.30;1.50;;;16.50;99.90;;;;;;5054892;28;20264;-54
2022/09/10 03:56:09;;;;;;;3.63;1.33;;;16.60;99.90;;;;;;5054219;28;20617;-54
2022/09/10 03:58:36;;;;;;;2.37;0.90;;;16.60;99.90;;;;;;5053862;28;20205;-56
2022/09/10 04:01:04;;;;;;;2.23;0.87;;;16.50;99.90;;;;;;5053680;28;20293;-54
2022/09/10 04:03:31;;;;;;;2.70;1.00;;;16.50;99.90;;;;;;5053715;28;20209;-54
2022/09/10 04:05:58;;;;;;;1.00;0.80;;;16.50;99.90;;;;;;5053770;28;20213;-54
2022/09/10 04:08:24;;;;;;;2.10;0.75;;;16.50;99.90;;;;;;5053801;28;20586;-53
2022/09/10 04:10:51;;;;;;;2.43;0.70;;;16.50;99.90;;;;;;5053903;28;20206;-54
2022/09/10 04:13:18;;;;;;;1.90;1.47;;;16.50;99.90;;;;;;5053605;28;20209;-54
2022/09/10 04:15:45;;;;;;;5.45;3.10;;;16.50;99.90;;;;;;5053378;28;20230;-54
2022/09/10 04:18:14;;;;;;;5.07;2.35;;;16.60;99.90;;;;;;5053613;28;20368;-55
2022/09/10 04:20:41;;;;;;;2.10;1.20;;;16.60;99.90;;;;;;5053339;28;20213;-54
2022/09/10 04:23:07;;;;;;;1.80;1.15;;;16.70;99.90;;;;;;5053422;28;20287;-56
2022/09/10 04:25:34;;;;;;;1.23;0.80;;;16.70;99.90;;;;;;5086925;22;20225;-57
2022/09/10 04:28:02;;;;;;;3.55;1.23;;;16.70;99.90;;;;;;5073833;28;20234;-56
2022/09/10 04:30:28;;;;;;;2.27;0.80;;;16.70;99.90;;;;;;5074371;28;20212;-60
2022/09/10 04:32:55;;;;;;;2.25;1.70;;;16.80;99.90;;;;;;5074269;28;20217;-58
2022/09/10 04:35:24;;;;;;;4.65;1.80;;;16.90;99.90;;;;;;5073973;28;20251;-57
2022/09/10 04:37:51;;;;;;;5.00;1.48;;;16.80;99.90;;;;;;5074044;28;20229;-56
2022/09/10 04:40:18;;;;;;;2.33;1.10;;;16.80;99.90;;;;;;5073897;28;20208;-58
2022/09/10 04:42:45;;;;;;;1.35;0.98;;;16.80;99.90;;;;;;5073673;28;20220;-57
2022/09/10 04:45:11;;;;;;;3.10;0.93;;;16.80;99.90;;;;;;5073530;28;20236;-57
2022/09/10 04:47:39;;;;;;;1.20;0.80;;;16.80;99.90;;;;;;5073943;28;20204;-56
2022/09/10 04:50:06;;;;;;;2.47;1.02;;;16.80;99.90;;;;;;5073858;28;20209;-58
2022/09/10 04:52:34;;;;;;;2.35;1.00;;;16.80;99.90;;;;;;5073547;28;20674;-57
2022/09/10 04:55:01;;;;;;;1.98;1.05;;;16.80;99.90;;;;;;5073620;28;20290;-57
2022/09/10 04:57:28;;;;;;;2.47;1.20;;;16.80;99.90;;;;;;5073631;28;20205;-57
2022/09/10 04:59:55;;;;;;;2.50;1.00;;;16.70;99.90;;;;;;5073488;28;20208;-57
2022/09/10 05:02:22;;;;;;;3.72;1.63;;;16.80;99.90;;;;;;5073728;28;20325;-57
2022/09/10 05:04:49;;;;;;;4.57;2.55;;;16.90;99.90;;;;;;5073376;28;20716;-59
2022/09/10 05:07:16;;;;;;;0.75;0.70;;;16.80;99.90;;;;;;5073291;28;20243;-58
2022/09/10 05:09:44;;;;;;;5.20;1.20;;;16.90;99.90;;;;;;5073194;28;20565;-58
2022/09/10 05:12:11;;;;;;;2.60;1.27;;;16.90;99.90;;;;;;5073349;28;20291;-58
2022/09/10 05:14:38;;;;;;;3.53;2.33;;;16.90;99.90;;;;;;5073483;28;20311;-58
2022/09/10 05:17:05;;;;;;;4.25;1.42;;;17.00;99.90;;;;;;5073667;28;20208;-58
2022/09/10 05:19:31;;;;;;;2.38;1.30;;;17.10;99.90;;;;;;5073042;28;20208;-58
2022/09/10 05:21:58;;;;;;;2.22;1.27;;;17.10;99.90;;;;;;5073240;28;20267;-58
2022/09/10 05:24:26;;;;;;;5.07;1.70;;;17.10;99.90;;;;;;5073145;28;20237;-57
2022/09/10 05:26:55;;;;;;;3.45;1.38;;;17.10;99.90;;;;;;5073183;28;20216;-57
2022/09/10 05:29:22;;;;;;;4.40;2.22;;;17.10;99.90;;;;;;5073777;28;20251;-58
2022/09/10 05:31:49;;;;;;;4.03;1.30;;;17.10;99.90;;;;;;5074239;28;20581;-58
2022/09/10 05:34:16;;;;;;;2.40;1.20;;;17.10;99.90;;;;;;5074856;28;20205;-57
2022/09/10 05:36:42;;;;;;;2.65;1.42;;;17.20;99.90;;;;;;5074825;28;20209;-58
2022/09/10 05:39:09;;;;;;;6.38;1.67;;;17.20;99.90;;;;;;5075168;28;20209;-62
2022/09/10 05:41:36;;;;;;;2.38;1.02;;;17.20;99.90;;;;;;5073885;28;20205;-55
2022/09/10 05:44:04;;;;;;;5.57;1.38;;;17.10;99.90;;;;;;5073533;28;20695;-56
2022/09/10 05:46:32;;;;;;;4.72;2.63;;;17.10;99.90;;;;;;5074680;28;20365;-57
2022/09/10 05:48:58;;;;;;;2.33;1.63;;;17.20;99.90;;;;;;5074636;28;20212;-58
2022/09/10 05:51:28;;;;;;;3.30;1.88;;;17.20;99.90;;;;;;5074352;28;20213;-58
2022/09/10 05:53:56;;;;;;;2.92;1.30;;;17.20;99.90;;;;;;5074159;28;20201;-58
2022/09/10 05:56:24;;;;;;;1.58;0.70;;;17.20;99.90;;;;;;5072922;28;20232;-58
2022/09/10 05:58:51;;;;;;;5.95;2.90;;;17.20;99.90;;;;;;5072211;28;20209;-58
2022/09/10 06:01:19;;;;;;;3.05;1.02;;;17.20;99.90;;;;;;5072081;28;20219;-58
2022/09/10 06:03:46;;;;;;;2.45;1.30;;;17.30;99.90;;;;;;5071988;28;20225;-58
2022/09/10 06:06:13;;;;;;;1.38;0.88;;;17.40;99.90;;;;;;5072025;28;20231;-58
2022/09/10 06:08:39;;;;;;;1.47;0.77;;;17.50;99.90;;;;;;5072065;28;20603;-59
2022/09/10 06:11:07;;;;;;;3.80;1.13;;;17.60;99.90;;;;;;5072075;28;20547;-58
2022/09/10 06:13:34;;;;;;;3.67;1.33;;;17.70;99.90;;;;;;5072067;28;20208;-59
2022/09/10 06:16:03;;;;;;;1.08;0.70;;;17.80;99.90;;;;;;5072244;28;20228;-58
2022/09/10 06:18:32;;;;;;;2.83;1.27;;;17.80;99.90;;;;;;5072362;28;20224;-58
2022/09/10 06:21:03;;;;;;;2.88;0.77;;;17.90;99.90;;;;;;5072318;28;20240;-58
2022/09/10 06:23:30;;;;;;;1.15;0.65;;;17.90;99.90;;;;;;5071977;28;20253;-58
2022/09/10 06:26:03;;;;;;;2.20;0.95;;;18.00;99.90;;;;;;5071854;28;20247;-58
2022/09/10 06:28:30;;;;;;;12.13;6.70;;;18.00;99.90;;;;;;5072233;28;20248;-58
2022/09/10 06:30:57;;;;;;;11.55;7.32;;;18.00;99.90;;;;;;5071764;28;20250;-58
2022/09/10 06:33:24;;;;;;;3.03;1.20;;;18.10;99.90;;;;;;5072624;28;20201;-58
2022/09/10 06:35:57;;;;;;;2.45;0.90;;;18.10;99.90;;;;;;5071955;28;20224;-58
2022/09/10 06:38:24;;;;;;;3.17;0.80;;;18.10;99.90;;;;;;5072797;28;20475;-59
2022/09/10 06:40:53;;;;;;;1.45;0.90;;;18.10;99.90;;;;;;5071944;28;20216;-58
2022/09/10 06:43:22;;;;;;;3.63;1.02;;;18.30;99.90;;;;;;5072274;28;20228;-58
2022/09/10 06:45:49;;;;;;;2.47;0.90;;;18.20;99.90;;;;;;5072110;28;20264;-58
2022/09/10 06:48:17;;;;;;;2.78;0.68;;;18.30;99.90;;;;;;5072663;28;20221;-59
2022/09/10 06:50:56;;;;;;;3.92;0.90;;;18.40;99.90;;;;;;5071738;28;20262;-59
2022/09/10 06:53:24;;;;;;;3.35;0.85;;;18.50;99.90;;;;;;5072378;28;20211;-59
2022/09/10 06:55:52;;;;;;;1.65;0.82;;;18.50;99.90;;;;;;5072260;28;20225;-58
2022/09/10 06:58:20;;;;;;;4.53;0.80;;;18.50;99.90;;;;;;5072730;28;20212;-58
2022/09/10 07:00:47;;;;;;;4.18;1.13;;;18.60;99.90;;;;;;5072752;28;20232;-59
2022/09/10 07:03:15;;;;;;;2.33;0.80;;;18.70;99.90;;;;;;5073626;28;20315;-59
2022/09/10 07:05:42;;;;;;;2.42;0.95;;;18.70;99.90;;;;;;5073455;28;20229;-58
2022/09/10 07:08:11;;;;;;;1.98;1.17;;;18.80;99.90;;;;;;5075934;28;20215;-58
2022/09/10 07:10:38;;;;;;;2.40;1.00;;;18.90;99.90;;;;;;5077340;28;20243;-58
2022/09/10 07:13:04;;;;;;;4.38;0.70;;;19.00;99.90;;;;;;5076549;28;20567;-59
2022/09/10 07:15:31;;;;;;;1.92;0.80;;;19.10;99.90;;;;;;5076036;28;20225;-59
2022/09/10 07:17:58;;;;;;;1.30;0.80;;;19.30;99.90;;;;;;5075957;28;20623;-59
2022/09/10 07:20:27;;;;;;;3.20;0.70;;;19.30;99.90;;;;;;5076563;28;20205;-58
2022/09/10 07:22:54;;;;;;;3.35;2.00;;;19.40;99.90;;;;;;5077121;28;20229;-57
2022/09/10 07:25:23;;;;;;;1.98;1.35;;;19.60;99.90;;;;;;5077604;28;20247;-58
2022/09/10 07:27:50;;;;;;;4.32;1.55;;;19.70;99.90;;;;;;5075445;28;20623;-56
2022/09/10 07:30:18;;;;;;;1.98;0.70;;;19.90;99.90;;;;;;5075224;28;20228;-57
2022/09/10 07:32:47;;;;;;;1.05;0.68;;;20.10;99.90;;;;;;5075177;28;20244;-57
2022/09/10 07:35:14;;;;;;;2.47;1.67;;;20.30;99.90;;;;;;5074793;28;20231;-57
2022/09/10 07:37:41;;;;;;;7.78;5.03;;;20.60;99.90;;;;;;5075237;28;20291;-56
2022/09/10 07:40:09;;;;;;;1.90;0.65;;;20.80;99.90;;;;;;5074811;28;20688;-57
2022/09/10 07:42:37;;;;;;;2.20;0.73;;;20.80;99.90;;;;;;5075119;28;20727;-56
2022/09/10 07:45:06;;;;;;;2.28;0.70;;;20.80;99.90;;;;;;5074430;28;20225;-57
2022/09/10 07:47:33;;;;;;;1.55;0.85;;;20.80;99.90;;;;;;5074563;28;20220;-55
2022/09/10 07:49:59;;;;;;;1.30;0.82;;;20.80;99.90;;;;;;5074304;28;20201;-57
2022/09/10 07:52:26;;;;;;;1.73;0.70;;;20.80;99.90;;;;;;5074425;28;20681;-57
2022/09/10 07:54:53;;;;;;;12.73;8.88;;;20.90;99.90;;;;;;5072907;28;20228;-55
2022/09/10 07:57:20;;;;;;;1.08;0.52;;;20.90;99.90;;;;;;5052502;28;20307;-57
2022/09/10 07:59:48;;;;;;;1.95;0.52;;;20.70;99.90;;;;;;5053252;28;20198;-57
2022/09/10 08:02:15;;;;;;;0.93;0.60;;;20.60;99.90;;;;;;5052686;28;20209;-56
2022/09/10 08:04:41;;;;;;;2.33;0.70;;;20.50;99.90;;;;;;5052828;28;20263;-57
2022/09/10 08:07:08;;;;;;;2.28;0.60;;;20.60;99.90;;;;;;5053229;28;20205;-57
2022/09/10 08:09:35;;;;;;;1.33;0.68;;;20.70;99.90;;;;;;5052979;28;20205;-57
2022/09/10 08:12:02;;;;;;;0.63;0.47;;;20.90;99.90;;;;;;5053113;28;20201;-56
2022/09/10 08:14:28;;;;;;;1.73;0.90;;;21.00;99.90;;;;;;5052748;28;20225;-61
2022/09/10 08:16:57;;;;;;;1.75;0.70;;;20.90;99.90;;;;;;5052865;28;20228;-58
2022/09/10 08:19:23;;;;;;;4.75;0.73;;;20.80;99.90;;;;;;5051814;28;20216;-58
2022/09/10 08:21:50;;;;;;;0.95;0.40;;;20.70;99.90;;;;;;5053481;28;20210;-60
2022/09/10 08:24:17;;;;;;;2.58;0.50;;;20.60;99.90;;;;;;5053012;28;20221;-61
2022/09/10 08:26:44;;;;;;;4.15;0.63;;;20.60;99.90;;;;;;5052956;28;20205;-60
2022/09/10 08:29:10;;;;;;;0.50;0.50;;;20.60;99.90;;;;;;5052604;28;20205;-61
2022/09/10 08:31:37;;;;;;;1.95;0.80;;;20.80;99.90;;;;;;5052628;28;20220;-61
2022/09/10 08:34:05;;;;;;;1.67;1.35;;;20.80;99.90;;;;;;5052728;28;20220;-60
2022/09/10 08:36:32;;;;;;;2.83;1.20;;;21.00;99.90;;;;;;5052839;28;20218;-60
2022/09/10 08:38:58;;;;;;;1.95;1.00;;;21.10;99.90;;;;;;5051687;28;20201;-60
2022/09/10 08:41:31;;;;;;;1.42;1.20;;;21.40;99.90;;;;;;5052542;28;20206;-61
2022/09/10 08:44:02;;;;;;;3.35;1.05;;;21.70;99.90;;;;;;5052087;28;20225;-60
2022/09/10 08:46:33;;;;;;;1.70;0.90;;;22.30;99.90;;;;;;5052713;28;20696;-60
2022/09/10 08:49:08;;;;;;;3.33;0.75;;;22.70;99.90;;;;;;5070334;28;20287;-61
2022/09/10 08:51:41;;;;;;;1.92;1.10;;;23.30;99.90;;;;;;5072369;28;20204;-61
2022/09/10 08:54:13;;;;;;;1.40;0.95;;;23.60;99.90;;;;;;5072463;28;20691;-59
2022/09/10 08:56:41;;;;;;;1.42;0.68;;;23.70;99.90;;;;;;5060893;28;20614;-58
2022/09/10 08:59:19;;;;;;;1.65;0.65;;;23.90;99.90;;;;;;5047840;28;20396;-60
2022/09/10 09:01:50;;;;;;;2.38;0.60;;;23.80;99.90;;;;;;5051966;28;20213;-61
2022/09/10 09:04:29;;;;;;;1.48;0.55;;;23.70;99.90;;;;;;5051665;28;20255;-60
2022/09/10 09:07:02;;;;;;;2.60;0.70;;;23.50;99.90;;;;;;5052056;28;20474;-61
2022/09/10 09:09:29;;;;;;;1.52;0.70;;;23.40;99.90;;;;;;5051712;28;20220;-62
2022/09/10 09:12:03;;;;;;;1.92;0.57;;;23.00;99.90;;;;;;5052768;28;20220;-58
2022/09/10 09:14:45;;;;;;;2.08;0.95;;;22.70;99.90;;;;;;5052622;28;20236;-57
2022/09/10 09:17:37;;;;;;;3.08;1.50;;;22.50;99.90;;;;;;5052910;28;20220;-58
2022/09/10 09:20:16;;;;;;;2.13;1.20;;;22.60;99.90;;;;;;5052839;28;20535;-58
2022/09/10 09:23:03;;;;;;;1.50;0.85;;;22.70;99.90;;;;;;5053084;28;20735;-58
2022/09/10 09:25:45;;;;;;;2.17;1.10;;;23.00;99.90;;;;;;5053104;28;20241;-58
2022/09/10 09:28:19;;;;;;;2.25;0.80;;;23.20;99.90;;;;;;5053397;28;20308;-58
2022/09/10 09:30:49;;;;;;;4.25;1.10;;;23.30;99.90;;;;;;5052619;28;20201;-57
2022/09/10 09:33:19;;;;;;;1.00;0.50;;;23.30;99.90;;;;;;5053185;28;20284;-58
2022/09/10 09:35:51;;;;;;;4.50;0.98;;;23.20;99.90;;;;;;5053534;28;20237;-58
2022/09/10 09:38:22;;;;;;;2.97;1.00;;;23.20;99.90;;;;;;5053727;28;20220;-59
2022/09/10 09:40:55;;;;;;;1.90;0.60;;;23.30;99.90;;;;;;5053290;28;20290;-58
2022/09/10 09:43:35;;;;;;;3.42;0.63;;;23.50;99.90;;;;;;5052948;28;20229;-57
2022/09/10 09:46:03;;;;;;;1.15;0.80;;;23.80;99.90;;;;;;5052859;28;20712;-58
2022/09/10 09:48:37;;;;;;;1.95;0.73;;;23.90;99.90;;;;;;5051852;28;20252;-57
2022/09/10 09:51:07;;;;;;;2.33;0.60;;;23.90;99.90;;;;;;5051541;28;20283;-58
2022/09/10 09:53:34;;;;;;;1.15;0.50;;;23.70;99.90;;;;;;5051918;28;20205;-59
2022/09/10 09:56:05;;;;;;;6.00;1.75;;;23.30;99.90;;;;;;5052584;28;20229;-58
2022/09/10 09:58:38;;;;;;;3.70;1.08;;;22.90;99.90;;;;;;5051939;28;20212;-58
2022/09/10 10:01:15;;;;;;;4.38;1.30;;;22.50;99.90;;;;;;5051605;28;20669;-58
2022/09/10 10:03:51;;;;;;;4.50;1.45;;;22.20;99.90;;;;;;5052079;28;20221;-58
2022/09/10 10:06:22;;;;;;;8.52;2.20;;;22.00;99.90;;;;;;5052110;28;20274;-57
2022/09/10 10:09:04;;;;;;;2.53;1.25;;;21.90;99.90;;;;;;5052088;28;20595;-59
2022/09/10 10:11:47;;;;;;;4.10;0.98;;;21.90;99.90;;;;;;5051877;28;20201;-58
2022/09/10 10:14:24;;;;;;;2.67;1.15;;;22.00;99.90;;;;;;5051470;28;20692;-58
2022/09/10 10:16:52;;;;;;;4.22;0.77;;;22.00;99.90;;;;;;5051996;28;20228;-58
2022/09/10 10:19:31;;;;;;;2.78;1.13;;;21.80;99.90;;;;;;5051609;28;20271;-58
2022/09/10 10:22:23;;;;;;;5.38;1.27;;;21.50;99.90;;;;;;5051720;28;20205;-57
2022/09/10 10:24:52;;;;;;;8.55;1.40;;;21.10;99.90;;;;;;5076809;22;20530;-60
2022/09/10 10:27:25;;;;;;;4.97;1.50;;;21.00;99.90;;;;;;5059645;28;20309;-60
2022/09/10 10:29:57;;;;;;;5.47;1.17;;;21.40;99.90;;;;;;5031247;28;20217;-60
2022/09/10 10:32:33;;;;;;;2.30;1.20;;;21.80;99.90;;;;;;5031369;28;20213;-60
2022/09/10 10:35:18;;;;;;;3.67;1.25;;;22.00;99.90;;;;;;5031412;28;20240;-60
2022/09/10 10:38:00;;;;;;;5.55;1.45;;;21.90;99.90;;;;;;5031863;28;20297;-59
2022/09/10 10:40:32;;;;;;;6.85;1.30;;;21.50;99.90;;;;;;5031286;28;20209;-57
2022/09/10 10:43:12;;;;;;;4.28;1.23;;;21.00;99.90;;;;;;5034345;28;20206;-61
2022/09/10 10:45:49;;;;;;;3.83;1.10;;;20.80;99.90;;;;;;5035458;28;20226;-59
2022/09/10 10:48:27;;;;;;;4.28;1.23;;;20.90;99.90;;;;;;5035330;28;20264;-59
2022/09/10 10:50:58;;;;;;;2.40;1.08;;;21.40;99.90;;;;;;5034872;28;20217;-59
2022/09/10 10:53:39;;;;;;;3.13;0.85;;;22.00;99.90;;;;;;5035098;28;20210;-57
2022/09/10 10:56:13;;;;;;;3.95;1.20;;;22.40;99.90;;;;;;5034975;28;20237;-59
2022/09/10 10:58:51;;;;;;;3.78;1.30;;;22.50;99.90;;;;;;5035246;28;20211;-59
2022/09/10 11:01:20;;;;;;;3.45;1.02;;;22.50;99.90;;;;;;5034753;28;20300;-59
2022/09/10 11:03:55;;;;;;;3.65;1.38;;;22.50;99.90;;;;;;5034793;28;20226;-59
2022/09/10 11:06:24;;;;;;;3.60;1.38;;;22.60;99.90;;;;;;5034936;28;20229;-59
2022/09/10 11:08:56;;;;;;;3.60;0.90;;;22.70;99.90;;;;;;5034903;28;20209;-58
2022/09/10 11:11:27;;;;;;;3.45;1.10;;;22.90;99.90;;;;;;5034504;28;20206;-59
2022/09/10 11:13:59;;;;;;;2.85;1.50;;;23.20;99.90;;;;;;5035050;28;20725;-59
2022/09/10 11:16:30;;;;;;;8.20;3.35;;;23.40;99.90;;;;;;5034532;28;20237;-59
2022/09/10 11:19:02;;;;;;;2.70;1.55;;;23.50;99.90;;;;;;5034628;28;20764;-59
2022/09/10 11:21:34;;;;;;;2.28;0.90;;;23.80;99.90;;;;;;5034757;28;20210;-60
2022/09/10 11:24:08;;;;;;;2.03;0.60;;;24.00;99.90;;;;;;5034593;28;20275;-59
2022/09/10 11:26:38;;;;;;;0.82;0.50;;;24.50;99.90;;;;;;5034242;28;20233;-60
2022/09/10 11:29:21;;;;;;;1.30;0.57;;;24.80;99.90;;;;;;5034354;28;20627;-59
2022/09/10 11:31:53;;;;;;;1.83;0.57;;;25.00;99.90;;;;;;5034725;28;20847;-59
2022/09/10 11:34:27;;;;;;;1.63;0.90;;;25.00;99.90;;;;;;5034284;28;20711;-58
2022/09/10 11:37:00;;;;;;;3.47;1.90;;;25.10;99.90;;;;;;5034300;28;20244;-59
2022/09/10 11:39:33;;;;;;;1.55;0.75;;;25.30;99.90;;;;;;5034339;28;20236;-59
2022/09/10 11:42:07;;;;;;;0.95;0.55;;;25.40;99.90;;;;;;5034364;28;20206;-59
2022/09/10 11:44:43;;;;;;;1.80;0.60;;;25.40;99.90;;;;;;5034280;28;20233;-59
2022/09/10 11:47:15;;;;;;;4.90;1.10;;;25.40;99.90;;;;;;5034166;28;20206;-59
2022/09/10 11:49:48;;;;;;;4.03;0.70;;;25.60;99.90;;;;;;5033708;28;20229;-59
2022/09/10 11:52:16;;;;;;;2.72;0.70;;;25.90;99.90;;;;;;5033922;28;20214;-59
2022/09/10 11:54:46;;;;;;;1.92;0.60;;;26.00;99.90;;;;;;5034214;28;20260;-59
2022/09/10 11:57:22;;;;;;;2.47;0.75;;;26.00;99.90;;;;;;5034004;28;20210;-59
2022/09/10 12:00:06;;;;;;;2.28;1.20;;;25.80;99.90;;;;;;5033730;28;20206;-59
2022/09/10 12:03:12;;;;;;;3.17;1.30;;;25.60;99.90;;;;;;5033955;28;20230;-59
2022/09/10 12:05:54;;;;;;;1.40;0.50;;;25.40;99.90;;;;;;5033589;28;20237;-59
2022/09/10 12:08:32;;;;;;;3.15;1.15;;;25.40;99.90;;;;;;5033652;28;20214;-59
2022/09/10 12:11:13;;;;;;;1.95;1.00;;;25.50;99.90;;;;;;5033221;28;20647;-58
2022/09/10 12:13:43;;;;;;;2.90;0.80;;;25.60;99.90;;;;;;5033876;28;20214;-60
2022/09/10 12:16:20;;;;;;;2.50;0.50;;;25.40;99.90;;;;;;5033486;28;20234;-59
2022/09/10 12:18:51;;;;;;;2.10;0.70;;;25.10;99.90;;;;;;5033619;28;20202;-59
2022/09/10 12:21:28;;;;;;;3.00;1.52;;;24.70;99.90;;;;;;5033206;28;20564;-59
2022/09/10 12:23:56;;;;;;;3.47;0.90;;;24.50;99.90;;;;;;5033572;28;20229;-58
2022/09/10 12:26:24;;;;;;;1.80;0.80;;;24.30;99.90;;;;;;5033096;28;20234;-59
2022/09/10 12:29:05;;;;;;;1.60;0.73;;;24.10;99.90;;;;;;5033501;28;20206;-59
2022/09/10 12:32:35;;;;;;;1.95;0.60;;;24.10;99.90;;;;;;5033331;28;20217;-59
2022/09/10 12:35:44;;;;;;;2.40;0.70;;;24.30;99.90;;;;;;4991581;28;20298;-59
2022/09/10 12:39:03;;;;;;;2.67;0.45;;;24.60;99.90;;;;;;5033454;28;20199;-59
2022/09/10 12:41:56;;;;;;;3.10;1.05;;;25.00;99.90;;;;;;4991399;28;20294;-58
2022/09/10 12:44:45;;;;;;;1.98;0.60;;;25.30;99.90;;;;;;4991334;28;20228;-59
2022/09/10 12:47:49;;;;;;;1.23;0.57;;;25.40;99.90;;;;;;5020475;28;20620;-58
2022/09/10 12:50:37;;;;;;;3.10;0.80;;;25.40;99.90;;;;;;5033030;28;20248;-59
2022/09/10 12:53:34;;;;;;;2.40;0.65;;;25.50;99.30;;;;;;5033173;28;20206;-58
2022/09/10 12:56:06;;;;;;;2.42;0.60;;;25.40;98.60;;;;;;5032637;28;20775;-59
2022/09/10 12:58:58;;;;;;;2.80;0.80;;;25.00;98.90;;;;;;5032737;28;20236;-59
2022/09/10 13:01:39;;;;;;;3.67;0.80;;;24.50;99.40;;;;;;5032868;28;20218;-58
2022/09/10 13:04:19;;;;;;;2.40;1.02;;;24.20;99.90;;;;;;5032266;28;20298;-58
2022/09/10 13:06:47;;;;;;;5.07;0.70;;;24.20;99.90;;;;;;5032477;28;20254;-58